Time;durP1;ratioP1;P1;durP2;ratioP2;P2;SDS_P1;SDS_P2;PMS_P1;PMS_P2;Temp;Humidity;BMP_temperature;BMP_pressure;BME280_temperature;BME280_humidity;BME280_pressure;Samples;Min_cycle;Max_cycle;Signal;HPM_P1;HPM_P2
2021/09/06 00:00:08;;;;;;;43.23;14.17;;;9.90;99.90;;;;;;5023515;28;20211;-73
2021/09/06 00:02:34;;;;;;;38.70;12.97;;;9.70;99.90;;;;;;5015730;28;20204;-73
2021/09/06 00:05:04;;;;;;;30.83;12.40;;;9.70;99.90;;;;;;5013934;28;20618;-73
2021/09/06 00:07:31;;;;;;;40.20;13.70;;;9.80;99.90;;;;;;5015024;28;20227;-73
2021/09/06 00:10:03;;;;;;;29.37;12.47;;;9.80;99.90;;;;;;5013730;28;20208;-73
2021/09/06 00:12:30;;;;;;;30.10;12.40;;;9.80;99.90;;;;;;5016941;28;20201;-74
2021/09/06 00:14:57;;;;;;;28.00;12.43;;;9.80;99.90;;;;;;5025297;28;20218;-74
2021/09/06 00:17:23;;;;;;;33.70;11.93;;;9.70;99.90;;;;;;5027812;28;20206;-74
2021/09/06 00:19:50;;;;;;;40.07;12.23;;;9.70;99.90;;;;;;5012427;28;20541;-74
2021/09/06 00:22:17;;;;;;;27.37;11.83;;;9.70;99.90;;;;;;5012950;28;20678;-73
2021/09/06 00:24:44;;;;;;;29.10;11.67;;;9.70;99.90;;;;;;5026677;28;20200;-73
2021/09/06 00:27:12;;;;;;;35.00;13.27;;;9.70;99.90;;;;;;5027817;28;20716;-73
2021/09/06 00:29:39;;;;;;;30.77;11.90;;;9.70;99.90;;;;;;5022231;28;20658;-73
2021/09/06 00:32:07;;;;;;;33.60;13.37;;;9.60;99.90;;;;;;5018916;28;20210;-74
2021/09/06 00:34:33;;;;;;;25.67;12.07;;;9.60;99.90;;;;;;5014628;28;20200;-74
2021/09/06 00:37:00;;;;;;;26.43;12.17;;;9.70;99.90;;;;;;5030905;28;20207;-73
2021/09/06 00:39:27;;;;;;;28.90;12.90;;;9.90;99.90;;;;;;5029306;28;20228;-73
2021/09/06 00:41:54;;;;;;;20.97;12.07;;;10.00;99.90;;;;;;5014865;28;20206;-73
2021/09/06 00:44:22;;;;;;;34.20;12.70;;;10.00;99.90;;;;;;5021447;28;20204;-73
2021/09/06 00:46:51;;;;;;;28.80;12.83;;;10.00;99.90;;;;;;5015653;28;20224;-74
2021/09/06 00:49:19;;;;;;;33.10;11.33;;;10.00;99.90;;;;;;5016178;28;20228;-73
2021/09/06 00:51:46;;;;;;;30.83;12.07;;;10.00;99.90;;;;;;5016825;28;20589;-73
2021/09/06 00:54:13;;;;;;;26.17;10.83;;;10.10;99.90;;;;;;5013459;28;20204;-73
2021/09/06 00:56:40;;;;;;;20.77;11.53;;;10.10;99.90;;;;;;5012233;28;20688;-74
2021/09/06 00:59:07;;;;;;;23.37;11.17;;;10.00;99.90;;;;;;5012417;28;20214;-73
2021/09/06 01:01:35;;;;;;;21.30;9.83;;;10.00;99.90;;;;;;5021369;28;20566;-74
2021/09/06 01:04:02;;;;;;;16.83;10.00;;;10.00;99.90;;;;;;5012863;28;20204;-74
2021/09/06 01:06:29;;;;;;;17.03;10.30;;;10.10;99.90;;;;;;5017842;28;20206;-74
2021/09/06 01:08:55;;;;;;;14.43;9.70;;;10.20;99.90;;;;;;5023183;28;20208;-74
2021/09/06 01:11:23;;;;;;;23.53;11.07;;;10.30;99.90;;;;;;5012333;28;20209;-74
2021/09/06 01:13:50;;;;;;;19.63;10.63;;;10.30;99.90;;;;;;5013479;28;20204;-74
2021/09/06 01:16:17;;;;;;;19.30;11.73;;;10.30;99.90;;;;;;5019980;28;20671;-74
2021/09/06 01:18:45;;;;;;;21.00;11.33;;;10.40;99.90;;;;;;5028894;28;20204;-74
2021/09/06 01:21:14;;;;;;;23.00;10.93;;;10.60;99.90;;;;;;5013989;28;20208;-74
2021/09/06 01:23:41;;;;;;;23.10;10.53;;;10.50;99.90;;;;;;5016613;28;20654;-74
2021/09/06 01:26:09;;;;;;;25.80;11.53;;;10.50;99.90;;;;;;5020162;28;20223;-74
2021/09/06 01:28:37;;;;;;;26.57;12.30;;;10.50;99.90;;;;;;5025616;28;20697;-74
2021/09/06 01:31:05;;;;;;;29.83;12.80;;;10.60;99.90;;;;;;5012210;28;20210;-74
2021/09/06 01:33:31;;;;;;;26.07;12.40;;;10.50;99.90;;;;;;5015743;28;20206;-74
2021/09/06 01:35:58;;;;;;;30.20;14.00;;;10.60;99.90;;;;;;5021510;28;20202;-74
2021/09/06 01:38:25;;;;;;;28.57;12.77;;;10.70;99.90;;;;;;5021305;28;20307;-74
2021/09/06 01:40:52;;;;;;;42.50;14.23;;;10.70;99.90;;;;;;5010994;28;20222;-74
2021/09/06 01:43:20;;;;;;;28.50;14.50;;;10.70;99.90;;;;;;5010929;28;20678;-74
2021/09/06 01:45:47;;;;;;;33.77;15.03;;;10.60;99.90;;;;;;5019788;28;20203;-74
2021/09/06 01:48:14;;;;;;;61.30;14.73;;;10.50;99.90;;;;;;5029298;28;20399;-74
2021/09/06 01:50:41;;;;;;;28.90;13.67;;;10.50;99.90;;;;;;5015304;28;20204;-74
2021/09/06 01:53:07;;;;;;;27.10;14.07;;;10.60;99.90;;;;;;5024425;28;20269;-74
2021/09/06 01:55:34;;;;;;;26.70;14.43;;;10.50;99.90;;;;;;5024447;28;20200;-74
2021/09/06 01:58:01;;;;;;;25.50;14.17;;;10.60;99.90;;;;;;5022745;28;20213;-74
2021/09/06 02:00:30;;;;;;;21.23;13.03;;;10.70;99.90;;;;;;5019634;28;20211;-74
2021/09/06 02:02:56;;;;;;;22.90;13.73;;;10.60;99.90;;;;;;5024460;28;20216;-74
2021/09/06 02:05:23;;;;;;;23.33;13.17;;;10.60;99.90;;;;;;5025226;28;20214;-74
2021/09/06 02:07:51;;;;;;;23.73;13.57;;;10.60;99.90;;;;;;5027474;28;20219;-74
2021/09/06 02:10:18;;;;;;;27.17;13.30;;;10.60;99.90;;;;;;5030132;28;20310;-74
2021/09/06 02:12:45;;;;;;;21.83;13.33;;;10.60;99.90;;;;;;5021071;28;20548;-74
2021/09/06 02:15:12;;;;;;;20.57;12.57;;;10.60;99.90;;;;;;5011934;28;20201;-74
2021/09/06 02:17:40;;;;;;;20.10;12.13;;;10.60;99.90;;;;;;5013501;28;20715;-74
2021/09/06 02:20:08;;;;;;;25.57;12.37;;;10.50;99.90;;;;;;5019500;28;20200;-75
2021/09/06 02:22:35;;;;;;;26.97;12.00;;;10.50;99.90;;;;;;5019192;28;20209;-74
2021/09/06 02:25:01;;;;;;;31.90;11.20;;;10.50;99.90;;;;;;5012659;28;20196;-74
2021/09/06 02:27:29;;;;;;;21.47;11.13;;;10.40;99.90;;;;;;5027816;28;20223;-75
2021/09/06 02:29:55;;;;;;;29.33;11.47;;;10.30;99.90;;;;;;5014978;28;20204;-75
2021/09/06 02:32:22;;;;;;;19.50;11.47;;;10.30;99.90;;;;;;5016696;28;20203;-75
2021/09/06 02:34:51;;;;;;;22.27;11.80;;;10.40;99.90;;;;;;5016952;28;20597;-75
2021/09/06 02:37:18;;;;;;;27.77;11.93;;;10.40;99.90;;;;;;5020443;28;20196;-75
2021/09/06 02:39:45;;;;;;;28.37;12.03;;;10.40;99.90;;;;;;5010305;28;20223;-74
2021/09/06 02:42:12;;;;;;;36.67;12.93;;;10.40;99.90;;;;;;5011833;28;20211;-74
2021/09/06 02:44:39;;;;;;;32.23;13.80;;;10.30;99.90;;;;;;5024785;28;20659;-74
2021/09/06 02:47:05;;;;;;;35.50;13.37;;;10.30;99.90;;;;;;5019928;28;20208;-73
2021/09/06 02:49:32;;;;;;;38.70;12.93;;;10.30;99.90;;;;;;5013342;28;20552;-74
2021/09/06 02:52:00;;;;;;;50.07;13.27;;;10.10;99.90;;;;;;5013248;28;20204;-73
2021/09/06 02:54:27;;;;;;;31.33;13.90;;;10.10;99.90;;;;;;5024776;28;20205;-74
2021/09/06 02:56:54;;;;;;;29.93;12.40;;;10.10;99.90;;;;;;5015088;28;20582;-74
2021/09/06 02:59:21;;;;;;;27.27;12.40;;;10.20;99.90;;;;;;5014442;28;20579;-73
2021/09/06 03:01:48;;;;;;;31.23;12.97;;;10.10;99.90;;;;;;5023948;28;20203;-74
2021/09/06 03:04:15;;;;;;;27.73;13.63;;;10.00;99.90;;;;;;5031650;28;20203;-73
2021/09/06 03:06:41;;;;;;;33.73;13.23;;;10.00;99.90;;;;;;5029580;28;20210;-73
2021/09/06 03:09:10;;;;;;;29.90;13.47;;;10.00;99.90;;;;;;5014012;28;20228;-74
2021/09/06 03:11:38;;;;;;;26.93;12.13;;;10.20;99.90;;;;;;5018851;28;20210;-75
2021/09/06 03:14:05;;;;;;;22.57;12.37;;;10.20;99.90;;;;;;5022853;28;20291;-74
2021/09/06 03:16:31;;;;;;;33.10;13.27;;;10.30;99.90;;;;;;5012594;28;20561;-74
2021/09/06 03:18:59;;;;;;;19.53;12.43;;;10.30;99.90;;;;;;5021903;28;20226;-74
2021/09/06 03:21:25;;;;;;;21.57;13.03;;;10.30;99.90;;;;;;5032029;28;20199;-74
2021/09/06 03:23:54;;;;;;;24.40;13.40;;;10.30;99.90;;;;;;5017988;28;20210;-74
2021/09/06 03:26:22;;;;;;;21.07;12.37;;;10.40;99.90;;;;;;5021968;28;20667;-74
2021/09/06 03:28:49;;;;;;;26.77;13.00;;;10.30;99.90;;;;;;5018464;28;20230;-74
2021/09/06 03:31:16;;;;;;;26.57;13.67;;;10.10;99.90;;;;;;5027247;28;20208;-74
2021/09/06 03:33:43;;;;;;;37.73;13.40;;;10.20;99.90;;;;;;5015846;28;20204;-73
2021/09/06 03:36:09;;;;;;;49.83;13.43;;;10.20;99.90;;;;;;5021332;28;20207;-74
2021/09/06 03:38:36;;;;;;;53.97;12.73;;;10.10;99.90;;;;;;5017139;28;20283;-73
2021/09/06 03:41:03;;;;;;;30.50;12.97;;;10.00;99.90;;;;;;5029124;28;20204;-73
2021/09/06 03:43:31;;;;;;;44.20;13.60;;;10.10;99.90;;;;;;5018047;28;20200;-73
2021/09/06 03:45:58;;;;;;;36.17;13.17;;;10.00;99.90;;;;;;5012367;28;20208;-74
2021/09/06 03:48:25;;;;;;;66.50;14.43;;;10.20;99.90;;;;;;5030090;28;20227;-74
2021/09/06 03:50:52;;;;;;;24.87;13.90;;;10.00;99.90;;;;;;5024193;28;20643;-74
2021/09/06 03:53:19;;;;;;;35.07;16.53;;;10.00;99.90;;;;;;5012578;28;20207;-74
2021/09/06 03:55:46;;;;;;;40.87;12.80;;;10.20;99.90;;;;;;5012458;28;20212;-74
2021/09/06 03:58:13;;;;;;;66.70;13.17;;;10.10;99.90;;;;;;5015321;28;20204;-74
2021/09/06 04:00:41;;;;;;;35.23;11.80;;;9.90;99.90;;;;;;5014426;28;20295;-74
2021/09/06 04:03:08;;;;;;;34.40;12.87;;;9.90;99.90;;;;;;5022871;28;20203;-73
2021/09/06 04:05:34;;;;;;;54.93;13.70;;;10.10;99.90;;;;;;5018748;28;20200;-74
2021/09/06 04:08:01;;;;;;;40.20;12.63;;;10.20;99.90;;;;;;5032663;28;20250;-74
2021/09/06 04:10:28;;;;;;;41.60;12.43;;;10.00;99.90;;;;;;5020622;28;20617;-74
2021/09/06 04:12:55;;;;;;;42.23;13.47;;;10.20;99.90;;;;;;5022948;28;20239;-74
2021/09/06 04:15:22;;;;;;;33.60;13.40;;;10.10;99.90;;;;;;5014365;28;20204;-74
2021/09/06 04:17:50;;;;;;;35.87;13.10;;;10.20;99.90;;;;;;5020141;28;20200;-74
2021/09/06 04:20:17;;;;;;;33.07;13.50;;;10.20;99.90;;;;;;5016263;28;20210;-74
2021/09/06 04:22:44;;;;;;;30.67;12.63;;;10.30;99.90;;;;;;5013807;28;20211;-74
2021/09/06 04:25:11;;;;;;;29.40;13.73;;;10.30;99.90;;;;;;5012864;28;20204;-73
2021/09/06 04:27:38;;;;;;;27.63;14.17;;;10.30;99.90;;;;;;5012745;28;20215;-73
2021/09/06 04:30:06;;;;;;;39.03;12.80;;;10.40;99.90;;;;;;5024375;28;20591;-74
2021/09/06 04:32:33;;;;;;;28.70;12.43;;;10.50;99.90;;;;;;5017525;28;20208;-74
2021/09/06 04:35:01;;;;;;;32.33;12.43;;;10.50;99.90;;;;;;5028872;28;20200;-74
2021/09/06 04:37:28;;;;;;;24.03;12.07;;;10.40;99.90;;;;;;5026866;28;20670;-74
2021/09/06 04:39:55;;;;;;;27.97;12.73;;;10.50;99.90;;;;;;5074556;23;20238;-71
2021/09/06 04:42:22;;;;;;;31.83;11.07;;;10.60;99.90;;;;;;5012270;28;20209;-71
2021/09/06 04:44:49;;;;;;;28.50;12.17;;;10.50;99.90;;;;;;5019708;28;20195;-71
2021/09/06 04:47:16;;;;;;;21.27;12.27;;;10.50;99.90;;;;;;5025940;28;20657;-71
2021/09/06 04:49:42;;;;;;;33.87;12.17;;;10.50;99.90;;;;;;5026236;28;20266;-71
2021/09/06 04:52:12;;;;;;;17.10;10.37;;;10.60;99.90;;;;;;5017726;28;20200;-71
2021/09/06 04:54:38;;;;;;;28.83;11.13;;;10.70;99.90;;;;;;5021763;28;20208;-71
2021/09/06 04:57:05;;;;;;;23.07;11.07;;;10.70;99.90;;;;;;5018000;28;20220;-71
2021/09/06 04:59:32;;;;;;;30.30;11.97;;;10.60;99.90;;;;;;5017068;28;20565;-71
2021/09/06 05:01:59;;;;;;;29.30;11.17;;;10.50;99.90;;;;;;5020316;28;20204;-71
2021/09/06 05:04:26;;;;;;;30.70;11.20;;;10.50;99.90;;;;;;5016666;28;20295;-71
2021/09/06 05:06:54;;;;;;;32.13;11.20;;;10.40;99.90;;;;;;5020263;28;20576;-71
2021/09/06 05:09:22;;;;;;;20.43;9.87;;;10.40;99.90;;;;;;5021689;28;20226;-71
2021/09/06 05:11:49;;;;;;;25.80;10.70;;;10.20;99.90;;;;;;5019999;28;20200;-71
2021/09/06 05:14:16;;;;;;;43.00;11.13;;;10.30;99.90;;;;;;5013733;28;20299;-71
2021/09/06 05:16:43;;;;;;;68.70;11.47;;;10.40;99.90;;;;;;5023593;28;20747;-71
2021/09/06 05:19:10;;;;;;;40.60;10.97;;;10.40;99.90;;;;;;5014732;28;20205;-71
2021/09/06 05:21:37;;;;;;;45.23;11.40;;;10.40;99.90;;;;;;5012709;28;20215;-71
2021/09/06 05:24:04;;;;;;;34.03;10.27;;;10.20;99.90;;;;;;5027939;28;20570;-71
2021/09/06 05:26:33;;;;;;;42.70;11.97;;;10.10;99.90;;;;;;5022546;28;20248;-71
2021/09/06 05:29:00;;;;;;;20.63;9.77;;;10.40;99.90;;;;;;5011361;28;20737;-71
2021/09/06 05:31:27;;;;;;;40.53;10.80;;;10.20;99.90;;;;;;5013357;28;20204;-72
2021/09/06 05:33:54;;;;;;;38.77;11.07;;;10.50;99.90;;;;;;5026173;28;20204;-72
2021/09/06 05:36:21;;;;;;;24.20;9.77;;;10.40;99.90;;;;;;5030905;28;20535;-72
2021/09/06 05:38:48;;;;;;;35.10;10.57;;;10.60;99.90;;;;;;5021190;28;20650;-72
2021/09/06 05:41:19;;;;;;;28.87;11.03;;;10.60;99.90;;;;;;5011847;28;20636;-72
2021/09/06 05:43:47;;;;;;;30.67;10.50;;;10.60;99.90;;;;;;5010232;28;20216;-71
2021/09/06 05:46:15;;;;;;;26.20;10.77;;;10.60;99.90;;;;;;5011714;28;20262;-71
2021/09/06 05:48:42;;;;;;;22.60;10.30;;;10.70;99.90;;;;;;5009224;28;20224;-71
2021/09/06 05:51:09;;;;;;;31.50;10.40;;;10.90;99.90;;;;;;5017251;28;20208;-71
2021/09/06 05:53:36;;;;;;;29.83;11.17;;;10.50;99.90;;;;;;5029620;28;20207;-71
2021/09/06 05:56:03;;;;;;;28.90;11.63;;;10.60;99.90;;;;;;5028045;28;20235;-71
2021/09/06 05:58:30;;;;;;;27.00;11.10;;;10.70;99.90;;;;;;5030751;28;20285;-71
2021/09/06 06:00:58;;;;;;;41.03;11.50;;;10.70;99.90;;;;;;5018740;28;20212;-71
2021/09/06 06:03:25;;;;;;;49.57;11.53;;;10.80;99.90;;;;;;5023878;28;20694;-71
2021/09/06 06:05:52;;;;;;;32.53;11.10;;;10.80;99.90;;;;;;5015599;28;20212;-71
2021/09/06 06:08:19;;;;;;;40.27;10.87;;;10.80;99.90;;;;;;5017927;28;20231;-71
2021/09/06 06:10:47;;;;;;;36.47;11.20;;;10.90;99.90;;;;;;5021428;28;20818;-71
2021/09/06 06:13:14;;;;;;;18.20;10.60;;;10.90;99.90;;;;;;5023682;28;20200;-71
2021/09/06 06:15:41;;;;;;;42.47;11.07;;;11.00;99.90;;;;;;5016722;28;20208;-71
2021/09/06 06:18:09;;;;;;;29.13;10.57;;;10.90;99.90;;;;;;5025108;28;20196;-71
2021/09/06 06:20:36;;;;;;;55.23;11.40;;;11.00;99.90;;;;;;5022968;28;20616;-71
2021/09/06 06:23:03;;;;;;;32.63;10.70;;;11.00;99.90;;;;;;5013917;28;20200;-71
2021/09/06 06:25:30;;;;;;;17.00;11.17;;;11.20;99.90;;;;;;5016199;28;20204;-71
2021/09/06 06:27:57;;;;;;;26.00;12.00;;;11.30;99.90;;;;;;5008898;28;20208;-71
2021/09/06 06:30:26;;;;;;;80.43;12.90;;;11.40;99.90;;;;;;5018906;28;20224;-71
2021/09/06 06:32:53;;;;;;;52.53;12.73;;;11.40;99.90;;;;;;5029813;28;20207;-71
2021/09/06 06:35:21;;;;;;;22.07;12.07;;;11.40;99.90;;;;;;5017069;28;20609;-71
2021/09/06 06:37:48;;;;;;;61.07;12.57;;;11.50;99.90;;;;;;5012908;28;20266;-71
2021/09/06 06:40:15;;;;;;;47.43;12.93;;;11.40;99.90;;;;;;5014385;28;20208;-71
2021/09/06 06:42:42;;;;;;;50.93;12.53;;;11.60;99.90;;;;;;5026603;28;20207;-71
2021/09/06 06:45:10;;;;;;;23.07;11.30;;;11.50;99.90;;;;;;5030928;28;20200;-71
2021/09/06 06:47:37;;;;;;;24.93;12.60;;;11.70;99.90;;;;;;5032120;28;20951;-71
2021/09/06 06:50:05;;;;;;;33.43;11.47;;;11.80;99.90;;;;;;5016176;28;20279;-71
2021/09/06 06:52:35;;;;;;;28.50;11.57;;;11.90;99.90;;;;;;5018000;28;20227;-71
2021/09/06 06:55:02;;;;;;;50.37;12.83;;;11.70;99.90;;;;;;5021745;28;20302;-71
2021/09/06 06:57:29;;;;;;;31.10;11.50;;;11.90;99.90;;;;;;5012524;28;20258;-71
2021/09/06 06:59:56;;;;;;;67.33;10.67;;;11.80;99.90;;;;;;5016876;28;20204;-72
2021/09/06 07:02:22;;;;;;;97.73;13.90;;;11.50;99.90;;;;;;5014195;28;20250;-71
2021/09/06 07:04:50;;;;;;;20.87;10.83;;;11.50;99.90;;;;;;5017943;28;20732;-71
2021/09/06 07:07:16;;;;;;;27.77;11.57;;;11.80;99.90;;;;;;5015280;28;20204;-71
2021/09/06 07:09:45;;;;;;;32.57;11.00;;;12.00;99.90;;;;;;5027155;28;20795;-71
2021/09/06 07:12:12;;;;;;;22.47;10.60;;;12.10;99.90;;;;;;5017080;28;20294;-71
2021/09/06 07:14:39;;;;;;;25.77;9.73;;;12.20;99.90;;;;;;5019603;28;20200;-71
2021/09/06 07:17:06;;;;;;;33.80;10.63;;;12.30;99.90;;;;;;5015266;28;20635;-72
2021/09/06 07:19:33;;;;;;;28.03;10.13;;;12.30;99.90;;;;;;5017349;28;20223;-71
2021/09/06 07:22:00;;;;;;;88.80;12.37;;;12.30;99.90;;;;;;5025778;28;20254;-71
2021/09/06 07:24:27;;;;;;;89.23;13.17;;;12.30;99.90;;;;;;5018309;28;20255;-71
2021/09/06 07:26:55;;;;;;;61.50;12.43;;;12.30;99.90;;;;;;5011858;28;20655;-71
2021/09/06 07:29:22;;;;;;;44.23;11.73;;;12.30;99.90;;;;;;5016268;28;20235;-71
2021/09/06 07:31:49;;;;;;;125.63;14.63;;;12.30;99.90;;;;;;5010654;28;20204;-71
2021/09/06 07:34:16;;;;;;;86.93;12.37;;;12.30;99.90;;;;;;5014477;28;20606;-71
2021/09/06 07:36:43;;;;;;;48.97;12.13;;;12.30;99.90;;;;;;5013388;28;20196;-71
2021/09/06 07:39:12;;;;;;;258.77;21.90;;;12.50;99.90;;;;;;5023711;28;20208;-71
2021/09/06 07:41:39;;;;;;;51.73;12.83;;;12.70;99.90;;;;;;5015415;28;20659;-71
2021/09/06 07:44:08;;;;;;;159.47;14.13;;;12.60;99.90;;;;;;5011093;28;20216;-71
2021/09/06 07:46:35;;;;;;;45.43;11.40;;;12.30;99.90;;;;;;5013238;28;20196;-71
2021/09/06 07:49:02;;;;;;;64.53;12.03;;;12.60;99.90;;;;;;5013435;28;20634;-71
2021/09/06 07:51:29;;;;;;;29.83;11.73;;;12.90;99.90;;;;;;5013305;28;20201;-71
2021/09/06 07:53:56;;;;;;;31.10;11.97;;;12.90;99.90;;;;;;5011551;28;20200;-71
2021/09/06 07:56:23;;;;;;;74.87;12.37;;;13.10;99.90;;;;;;5016594;28;20596;-71
2021/09/06 07:58:50;;;;;;;33.97;12.07;;;13.00;99.90;;;;;;5031846;28;20250;-71
2021/09/06 08:01:18;;;;;;;22.23;11.47;;;13.00;99.90;;;;;;5028401;28;20212;-71
2021/09/06 08:03:45;;;;;;;20.30;11.77;;;13.00;99.90;;;;;;5022886;28;20224;-71
2021/09/06 08:06:12;;;;;;;17.03;11.03;;;13.20;99.90;;;;;;5020208;28;20205;-71
2021/09/06 08:08:39;;;;;;;32.23;12.63;;;13.30;99.90;;;;;;5025686;28;20199;-71
2021/09/06 08:11:06;;;;;;;18.30;12.07;;;13.30;99.90;;;;;;5023197;28;20207;-71
2021/09/06 08:13:33;;;;;;;25.20;13.77;;;13.40;99.90;;;;;;5020771;28;20560;-71
2021/09/06 08:16:00;;;;;;;29.87;13.30;;;13.50;99.90;;;;;;5025960;28;20439;-72
2021/09/06 08:18:29;;;;;;;19.93;11.73;;;13.60;99.90;;;;;;5025332;28;20200;-71
2021/09/06 08:20:56;;;;;;;21.23;13.67;;;13.80;99.90;;;;;;5026416;28;20724;-71
2021/09/06 08:23:23;;;;;;;20.50;13.03;;;13.90;99.90;;;;;;5022825;28;20208;-71
2021/09/06 08:25:50;;;;;;;23.40;13.97;;;14.00;99.90;;;;;;5024630;28;20203;-71
2021/09/06 08:28:18;;;;;;;19.23;12.73;;;14.00;99.90;;;;;;5022418;28;20249;-71
2021/09/06 08:30:45;;;;;;;19.97;13.00;;;14.10;99.90;;;;;;5024091;28;20228;-72
2021/09/06 08:33:12;;;;;;;22.60;12.70;;;14.20;99.90;;;;;;5024699;28;20251;-71
2021/09/06 08:35:41;;;;;;;21.77;13.43;;;14.20;99.90;;;;;;5020111;28;20247;-71
2021/09/06 08:38:08;;;;;;;23.53;14.17;;;14.30;99.90;;;;;;5028819;28;20542;-73
2021/09/06 08:40:35;;;;;;;22.37;14.00;;;14.50;99.90;;;;;;5022348;28;20622;-72
2021/09/06 08:43:05;;;;;;;19.10;12.67;;;14.50;99.90;;;;;;5024800;28;20224;-72
2021/09/06 08:45:33;;;;;;;21.50;13.63;;;14.60;99.90;;;;;;5026264;28;20654;-72
2021/09/06 08:48:00;;;;;;;21.73;13.93;;;14.80;99.90;;;;;;5022538;28;20651;-72
2021/09/06 08:50:28;;;;;;;23.10;14.10;;;15.10;99.90;;;;;;5021648;28;20306;-72
2021/09/06 08:52:57;;;;;;;23.10;14.30;;;15.20;99.90;;;;;;5019119;28;20204;-72
2021/09/06 08:55:24;;;;;;;20.83;13.45;;;15.30;99.90;;;;;;5025698;28;20204;-72
2021/09/06 08:57:51;;;;;;;23.52;14.23;;;15.40;99.90;;;;;;5023405;28;20238;-72
2021/09/06 09:00:26;;;;;;;23.67;15.50;;;15.50;99.90;;;;;;5018779;28;20753;-72
2021/09/06 09:02:53;;;;;;;24.65;14.88;;;15.50;99.90;;;;;;5019769;28;20229;-72
2021/09/06 09:05:20;;;;;;;23.00;14.75;;;15.70;99.90;;;;;;5027922;28;20226;-72
2021/09/06 09:07:47;;;;;;;26.27;17.13;;;15.70;99.90;;;;;;5028532;28;20199;-72
2021/09/06 09:10:30;;;;;;;25.52;16.08;;;15.70;99.90;;;;;;5023677;28;20224;-72
2021/09/06 09:13:05;;;;;;;27.58;17.08;;;15.60;99.90;;;;;;5018935;28;20204;-72
2021/09/06 09:15:32;;;;;;;26.65;17.67;;;15.80;99.90;;;;;;5021758;28;20649;-72
2021/09/06 09:18:00;;;;;;;27.85;18.08;;;15.70;99.90;;;;;;5018509;28;20204;-72
2021/09/06 09:20:38;;;;;;;25.75;16.83;;;16.00;99.90;;;;;;5027384;28;20231;-72
2021/09/06 09:23:06;;;;;;;26.88;16.70;;;16.40;99.90;;;;;;5015695;28;20263;-72
2021/09/06 09:25:36;;;;;;;31.45;17.73;;;16.70;99.90;;;;;;5026631;28;20211;-72
2021/09/06 09:28:04;;;;;;;26.10;16.30;;;16.90;99.90;;;;;;5021424;28;20254;-73
2021/09/06 09:30:32;;;;;;;24.13;15.65;;;17.00;99.90;;;;;;5020953;28;20293;-72
2021/09/06 09:33:09;;;;;;;23.25;15.75;;;17.80;99.90;;;;;;5022498;28;20590;-71
2021/09/06 09:35:37;;;;;;;26.45;16.63;;;17.80;99.90;;;;;;5020065;28;20289;-74
2021/09/06 09:38:06;;;;;;;24.50;16.23;;;18.10;99.90;;;;;;5023829;28;20219;-74
2021/09/06 09:40:37;;;;;;;24.90;16.75;;;18.60;99.90;;;;;;5012033;28;21266;-74
2021/09/06 09:43:04;;;;;;;26.27;16.27;;;18.70;99.90;;;;;;5013964;28;20208;-72
2021/09/06 09:45:33;;;;;;;25.23;16.50;;;18.70;99.90;;;;;;5018084;28;20414;-72
2021/09/06 09:48:01;;;;;;;24.88;17.20;;;19.00;99.90;;;;;;5015814;28;20572;-72
2021/09/06 09:50:31;;;;;;;24.77;16.05;;;19.00;99.90;;;;;;5012646;28;20223;-72
2021/09/06 09:52:59;;;;;;;26.23;16.40;;;19.20;99.90;;;;;;5017375;28;20266;-72
2021/09/06 09:55:31;;;;;;;23.45;16.25;;;20.10;99.90;;;;;;5018059;28;20215;-72
2021/09/06 09:58:00;;;;;;;23.67;16.75;;;20.10;99.90;;;;;;5015801;28;20240;-72
2021/09/06 10:00:27;;;;;;;23.65;16.23;;;19.90;99.90;;;;;;5019213;28;20212;-74
2021/09/06 10:02:57;;;;;;;24.17;16.42;;;20.00;99.90;;;;;;5021378;28;20231;-72
2021/09/06 10:05:26;;;;;;;25.02;17.83;;;19.90;99.90;;;;;;5015984;28;20227;-72
2021/09/06 10:07:53;;;;;;;27.85;18.90;;;20.70;99.90;;;;;;5016819;28;20216;-72
2021/09/06 10:10:22;;;;;;;27.48;17.13;;;21.30;99.90;;;;;;5007696;28;20378;-72
2021/09/06 10:13:03;;;;;;;23.83;17.40;;;21.60;99.90;;;;;;5013287;28;20215;-72
2021/09/06 10:15:32;;;;;;;23.27;17.27;;;21.40;99.90;;;;;;5012530;28;20255;-72
2021/09/06 10:18:02;;;;;;;27.00;18.02;;;21.30;99.90;;;;;;5004736;28;20220;-74
2021/09/06 10:20:29;;;;;;;24.73;17.77;;;21.00;99.90;;;;;;5013288;28;20204;-74
2021/09/06 10:23:04;;;;;;;26.17;18.88;;;21.50;99.90;;;;;;5013236;28;20281;-74
2021/09/06 10:25:34;;;;;;;26.35;19.35;;;21.20;99.90;;;;;;5019522;28;20262;-74
2021/09/06 10:28:04;;;;;;;28.52;20.92;;;21.20;99.90;;;;;;5003979;28;20448;-74
2021/09/06 10:30:38;;;;;;;28.40;19.27;;;21.00;99.90;;;;;;5001166;28;20259;-74
2021/09/06 10:33:06;;;;;;;28.90;20.75;;;21.10;99.90;;;;;;5020045;28;20640;-74
2021/09/06 10:35:34;;;;;;;26.90;19.15;;;21.30;99.90;;;;;;5013349;28;20287;-74
2021/09/06 10:38:04;;;;;;;26.75;19.65;;;21.50;99.90;;;;;;5012071;28;20286;-74
2021/09/06 10:40:33;;;;;;;26.80;19.27;;;21.40;99.90;;;;;;5011237;28;20212;-74
2021/09/06 10:43:15;;;;;;;28.92;19.88;;;21.50;99.90;;;;;;5021440;28;20734;-74
2021/09/06 10:45:45;;;;;;;28.88;19.48;;;21.90;99.90;;;;;;5013518;28;20421;-74
2021/09/06 10:48:17;;;;;;;30.95;21.00;;;21.60;99.90;;;;;;5012245;28;20207;-74
2021/09/06 10:50:45;;;;;;;27.38;19.45;;;21.30;99.90;;;;;;5005738;28;20693;-74
2021/09/06 10:53:18;;;;;;;27.35;18.58;;;21.30;99.90;;;;;;5016604;28;20195;-74
2021/09/06 10:55:47;;;;;;;25.25;18.92;;;21.80;99.90;;;;;;5006508;28;20211;-83
2021/09/06 10:58:14;;;;;;;24.83;18.05;;;21.00;99.90;;;;;;5005473;28;20203;-82
2021/09/06 11:00:50;;;;;;;26.17;18.45;;;21.20;99.90;;;;;;5005787;28;20201;-82
2021/09/06 11:03:17;;;;;;;24.83;17.55;;;21.40;99.90;;;;;;5008512;28;20208;-82
2021/09/06 11:05:51;;;;;;;23.55;16.52;;;22.10;99.90;;;;;;5012781;28;20293;-82
2021/09/06 11:08:24;;;;;;;22.70;16.10;;;22.60;99.90;;;;;;5014212;28;20241;-82
2021/09/06 11:10:51;;;;;;;22.42;16.48;;;21.80;99.90;;;;;;5009106;28;20307;-82
2021/09/06 11:13:18;;;;;;;25.95;18.10;;;21.80;99.90;;;;;;5004823;28;20227;-82
2021/09/06 11:15:46;;;;;;;22.73;16.48;;;21.80;99.90;;;;;;5009276;28;20208;-82
2021/09/06 11:18:13;;;;;;;24.17;16.95;;;22.30;99.90;;;;;;5007378;28;20208;-82
2021/09/06 11:20:44;;;;;;;22.70;16.05;;;22.40;99.90;;;;;;5012580;28;20623;-81
2021/09/06 11:23:11;;;;;;;26.23;17.73;;;23.20;99.90;;;;;;5019538;28;20720;-82
2021/09/06 11:25:40;;;;;;;22.95;16.60;;;23.50;99.90;;;;;;5012451;28;20288;-82
2021/09/06 11:28:09;;;;;;;23.63;16.83;;;23.50;99.90;;;;;;5013340;28;20243;-82
2021/09/06 11:30:38;;;;;;;23.77;16.58;;;23.60;99.90;;;;;;5011381;28;20224;-83
2021/09/06 11:33:09;;;;;;;22.80;16.08;;;23.10;99.90;;;;;;5017550;28;20976;-82
2021/09/06 11:35:37;;;;;;;20.98;15.20;;;23.60;99.90;;;;;;5019301;28;20213;-82
2021/09/06 11:38:04;;;;;;;22.02;15.93;;;23.70;99.90;;;;;;5012247;28;20464;-81
2021/09/06 11:40:32;;;;;;;22.13;15.38;;;24.10;99.90;;;;;;5017389;28;20227;-81
2021/09/06 11:43:00;;;;;;;25.25;16.08;;;24.40;99.90;;;;;;5004361;28;20634;-82
2021/09/06 11:45:28;;;;;;;21.80;15.93;;;24.10;99.90;;;;;;5004073;28;20254;-82
2021/09/06 11:48:00;;;;;;;28.55;15.75;;;24.40;99.90;;;;;;5015238;28;20613;-83
2021/09/06 11:50:31;;;;;;;21.42;15.00;;;23.90;99.90;;;;;;5000267;28;20891;-82
2021/09/06 11:53:04;;;;;;;22.50;15.32;;;24.00;99.90;;;;;;5007740;28;20732;-81
2021/09/06 11:55:31;;;;;;;20.50;14.07;;;23.70;99.90;;;;;;5013323;28;20208;-81
2021/09/06 11:58:09;;;;;;;18.20;13.18;;;23.70;99.90;;;;;;5014635;28;20231;-81
2021/09/06 12:00:37;;;;;;;19.92;14.18;;;24.30;99.90;;;;;;5013684;28;20261;-81
2021/09/06 12:03:06;;;;;;;20.63;13.90;;;24.00;99.90;;;;;;5007780;28;20817;-81
2021/09/06 12:05:47;;;;;;;20.30;13.55;;;23.60;99.90;;;;;;5013732;28;20208;-81
2021/09/06 12:08:16;;;;;;;18.40;13.32;;;24.00;99.90;;;;;;5013512;28;20219;-81
2021/09/06 12:10:44;;;;;;;20.77;14.02;;;23.70;99.90;;;;;;5020006;28;20259;-81
2021/09/06 12:13:19;;;;;;;19.52;13.05;;;23.80;99.90;;;;;;5007066;28;20258;-81
2021/09/06 12:15:53;;;;;;;18.17;12.77;;;23.80;99.90;;;;;;5016159;28;20211;-81
2021/09/06 12:18:20;;;;;;;17.33;11.85;;;24.30;99.90;;;;;;5012170;28;20625;-81
2021/09/06 12:20:49;;;;;;;17.38;12.27;;;24.40;99.90;;;;;;5009330;28;20732;-81
2021/09/06 12:23:28;;;;;;;20.05;13.82;;;24.00;99.90;;;;;;5007551;28;20266;-81
2021/09/06 12:25:55;;;;;;;17.13;12.27;;;24.30;99.90;;;;;;5013533;28;20743;-81
2021/09/06 12:28:22;;;;;;;16.70;11.55;;;24.30;99.90;;;;;;5018657;28;20258;-81
2021/09/06 12:30:58;;;;;;;19.27;12.63;;;25.00;99.90;;;;;;5018629;28;20317;-82